Time;durP1;ratioP1;P1;durP2;ratioP2;P2;SDS_P1;SDS_P2;PMS_P1;PMS_P2;Temp;Humidity;BMP_temperature;BMP_pressure;BME280_temperature;BME280_humidity;BME280_pressure;Samples;Min_cycle;Max_cycle;Signal;HPM_P1;HPM_P2
2020/12/05 13:07:02;;;;;;;10.57;4.33;;;19.20;47.20;;;;;;4206149;27;20370;-38
2020/12/05 13:09:26;;;;;;;;;;;19.20;47.80;;;;;;4189738;28;20321;-39
2020/12/05 13:11:48;;;;;;;7.38;4.22;;;19.20;47.50;;;;;;4188470;28;19928;-40
2020/12/05 13:14:08;;;;;;;19.02;4.18;;;19.20;47.40;;;;;;4189543;28;20098;-40
2020/12/05 13:16:30;;;;;;;12.50;4.40;;;19.20;47.40;;;;;;4190313;28;20053;-45
2020/12/05 13:18:51;;;;;;;10.80;4.50;;;19.20;48.00;;;;;;4188165;28;20055;-45
2020/12/05 13:21:21;;;;;;;10.43;4.55;;;19.20;47.50;;;;;;4189855;28;20427;-45
2020/12/05 13:23:52;;;;;;;9.45;4.00;;;19.20;47.80;;;;;;4194594;28;20091;-44
2020/12/05 13:26:25;;;;;;;10.30;3.83;;;19.20;47.10;;;;;;4191460;28;20122;-44
2020/12/05 13:28:45;;;;;;;10.20;4.07;;;19.20;47.00;;;;;;4192077;28;20057;-44
2020/12/05 13:31:05;;;;;;;8.27;3.75;;;19.20;46.80;;;;;;4191805;28;20419;-42
2020/12/05 13:33:29;;;;;;;15.43;4.38;;;19.20;47.10;;;;;;4192507;28;20091;-41
2020/12/05 13:35:52;;;;;;;8.27;3.90;;;19.20;46.90;;;;;;4191811;28;20055;-43
2020/12/05 13:38:15;;;;;;;15.68;3.42;;;19.20;46.90;;;;;;4191281;28;20107;-42
2020/12/05 13:40:36;;;;;;;7.43;3.93;;;19.20;46.80;;;;;;4192557;28;20102;-42
2020/12/05 13:42:57;;;;;;;;;;;19.20;46.80;;;;;;4192517;28;20518;-41
2020/12/05 13:45:20;;;;;;;9.07;3.33;;;19.20;46.90;;;;;;4190138;28;19931;-41
2020/12/05 13:47:43;;;;;;;8.25;3.08;;;19.20;46.70;;;;;;4190540;28;20140;-42
2020/12/05 13:50:04;;;;;;;8.10;3.53;;;19.20;46.60;;;;;;4192714;28;20122;-41
2020/12/05 13:52:24;;;;;;;;;;;19.20;46.60;;;;;;4193150;28;20110;-41
2020/12/05 13:54:46;;;;;;;10.88;3.60;;;19.20;46.70;;;;;;4193102;28;19934;-41
2020/12/05 13:57:09;;;;;;;;;;;19.20;46.60;;;;;;4193297;28;20957;-42
2020/12/05 13:59:33;;;;;;;7.70;3.08;;;19.20;46.70;;;;;;4192686;28;19955;-41
2020/12/05 14:01:59;;;;;;;7.28;2.88;;;19.20;46.50;;;;;;4192165;28;20082;-42
2020/12/05 14:04:27;;;;;;;8.50;3.20;;;19.20;46.50;;;;;;4191536;28;20067;-42
2020/12/05 14:06:50;;;;;;;8.60;3.75;;;19.20;46.50;;;;;;4190268;28;20118;-41
2020/12/05 14:09:13;;;;;;;7.88;3.88;;;19.20;46.50;;;;;;4191454;28;20063;-42
2020/12/05 14:11:39;;;;;;;6.97;3.53;;;19.20;46.50;;;;;;4191896;28;20454;-42
2020/12/05 14:14:03;;;;;;;6.95;3.30;;;19.20;46.50;;;;;;4191811;28;20100;-41
2020/12/05 14:16:28;;;;;;;7.38;3.20;;;19.10;46.50;;;;;;4190959;28;20051;-41
2020/12/05 14:18:48;;;;;;;7.45;3.45;;;19.10;46.40;;;;;;4180206;28;20509;-41
2020/12/05 14:21:08;;;;;;;5.40;2.88;;;19.10;46.50;;;;;;4181294;28;20542;-41
2020/12/05 14:23:31;;;;;;;6.13;2.75;;;19.10;46.50;;;;;;4181660;28;20060;-42
2020/12/05 14:25:51;;;;;;;4.93;2.97;;;19.10;46.50;;;;;;4179873;28;20060;-41
2020/12/05 14:28:15;;;;;;;6.43;3.17;;;19.10;46.50;;;;;;4181131;28;20067;-42
2020/12/05 14:30:39;;;;;;;5.43;2.88;;;19.10;46.40;;;;;;4181621;28;20063;-42
2020/12/05 14:32:59;;;;;;;5.20;2.97;;;19.10;46.40;;;;;;4179360;28;20142;-43
2020/12/05 14:35:19;;;;;;;5.53;2.53;;;19.10;46.40;;;;;;4180283;28;20140;-42
2020/12/05 14:37:42;;;;;;;7.20;2.70;;;19.00;46.30;;;;;;4181617;28;20060;-41
2020/12/05 14:40:03;;;;;;;4.68;2.65;;;19.00;46.20;;;;;;4179802;28;20087;-41
2020/12/05 14:42:26;;;;;;;6.25;2.92;;;19.00;46.20;;;;;;4178644;28;20091;-41
2020/12/05 14:44:49;;;;;;;4.40;3.58;;;19.00;46.20;;;;;;4180390;28;20072;-41
2020/12/05 14:47:12;;;;;;;5.47;3.08;;;19.00;46.10;;;;;;4181000;28;20587;-42
2020/12/05 14:49:32;;;;;;;5.20;2.70;;;19.00;46.00;;;;;;4181042;28;20674;-41
2020/12/05 14:51:52;;;;;;;3.50;2.57;;;19.00;46.00;;;;;;4180656;28;20134;-41
2020/12/05 14:54:20;;;;;;;4.00;2.22;;;19.00;46.10;;;;;;4179652;28;20067;-41
2020/12/05 14:56:42;;;;;;;4.47;2.28;;;19.00;46.10;;;;;;4180740;28;20052;-41
2020/12/05 14:59:02;;;;;;;;;;;19.00;46.00;;;;;;4180238;28;20068;-43
2020/12/05 15:01:25;;;;;;;5.88;2.95;;;19.00;46.40;;;;;;4181445;28;20041;-41
2020/12/05 15:04:00;;;;;;;4.00;2.30;;;18.90;46.00;;;;;;4178792;28;20539;-41
2020/12/05 15:06:23;;;;;;;5.63;2.42;;;18.90;46.10;;;;;;4180198;28;20426;-41
2020/12/05 15:08:46;;;;;;;4.03;2.42;;;18.90;46.00;;;;;;4180061;28;20059;-41
2020/12/05 15:11:07;;;;;;;4.93;2.70;;;18.90;45.90;;;;;;4163581;28;20056;-42
2020/12/05 15:13:27;;;;;;;4.73;2.60;;;18.90;46.50;;;;;;4168307;28;20075;-41
2020/12/05 15:15:48;;;;;;;5.68;2.38;;;18.90;45.90;;;;;;4177587;28;20142;-41
2020/12/05 15:18:11;;;;;;;4.60;2.45;;;18.80;45.80;;;;;;4180714;28;20099;-42
2020/12/05 15:20:41;;;;;;;;;;;18.90;45.90;;;;;;4180941;28;20051;-41
2020/12/05 15:23:01;;;;;;;4.90;2.78;;;18.90;46.20;;;;;;4178868;28;19943;-41
2020/12/05 15:25:22;;;;;;;3.80;2.50;;;18.80;45.80;;;;;;4178943;28;20059;-41
2020/12/05 15:27:46;;;;;;;3.43;2.57;;;18.80;45.80;;;;;;4179701;28;20419;-44
2020/12/05 15:30:08;;;;;;;5.55;3.15;;;18.80;45.80;;;;;;4171213;28;20283;-43
2020/12/05 15:32:29;;;;;;;5.18;3.35;;;18.80;45.90;;;;;;4179604;28;20059;-42
2020/12/05 15:34:50;;;;;;;7.63;2.90;;;18.80;46.60;;;;;;4166036;28;20059;-43
2020/12/05 15:37:17;;;;;;;5.70;2.67;;;18.80;46.20;;;;;;4170696;28;20500;-43
2020/12/05 15:39:40;;;;;;;3.63;2.60;;;18.80;46.30;;;;;;4162796;28;20118;-45
2020/12/05 15:42:07;;;;;;;4.70;2.70;;;18.80;46.70;;;;;;4173769;28;20150;-44
2020/12/05 15:44:28;;;;;;;5.88;3.25;;;18.70;46.60;;;;;;4166835;28;20107;-45
2020/12/05 15:46:48;;;;;;;4.93;2.70;;;18.80;46.70;;;;;;4170896;28;20053;-45
2020/12/05 15:49:14;;;;;;;6.40;3.30;;;18.80;47.00;;;;;;4170120;28;20621;-45
2020/12/05 15:51:36;;;;;;;5.80;3.13;;;18.70;47.00;;;;;;4171499;28;20134;-45
2020/12/05 15:54:02;;;;;;;5.60;3.30;;;18.80;47.00;;;;;;4170430;28;20651;-44
2020/12/05 15:56:22;;;;;;;5.63;3.35;;;18.80;47.10;;;;;;4168649;28;20052;-45
2020/12/05 15:58:43;;;;;;;;;;;18.80;47.00;;;;;;4171162;28;20180;-45
2020/12/05 16:01:11;;;;;;;3.88;2.75;;;18.70;47.00;;;;;;4178344;28;19944;-45
2020/12/05 16:03:34;;;;;;;4.60;3.23;;;18.70;47.30;;;;;;4178959;28;20110;-43
2020/12/05 16:05:58;;;;;;;4.68;3.13;;;18.70;47.30;;;;;;4177650;28;20064;-42
2020/12/05 16:08:21;;;;;;;6.22;2.97;;;18.70;47.40;;;;;;4177660;28;20649;-47
2020/12/05 16:10:45;;;;;;;6.68;3.05;;;18.70;47.40;;;;;;4179886;28;20446;-46
2020/12/05 16:13:08;;;;;;;5.15;3.03;;;18.70;47.40;;;;;;4178402;28;20106;-44
2020/12/05 16:15:40;;;;;;;5.35;3.08;;;18.70;47.60;;;;;;4176672;28;20193;-48
2020/12/05 16:18:03;;;;;;;10.55;3.10;;;18.70;47.70;;;;;;4177140;28;20071;-44
2020/12/05 16:20:23;;;;;;;5.75;3.22;;;18.70;47.70;;;;;;4177186;28;20056;-46
2020/12/05 16:22:43;;;;;;;5.43;3.10;;;18.70;47.60;;;;;;4180743;28;20064;-45
2020/12/05 16:25:12;;;;;;;6.05;3.30;;;18.70;48.50;;;;;;4187648;28;20054;-44
2020/12/05 16:27:34;;;;;;;4.00;3.10;;;18.80;47.70;;;;;;4171197;28;20056;-43
2020/12/05 16:29:54;;;;;;;5.78;3.53;;;18.70;47.80;;;;;;4159943;28;20055;-44
2020/12/05 16:32:17;;;;;;;6.00;3.33;;;18.70;47.80;;;;;;4175165;28;20055;-44
2020/12/05 16:34:40;;;;;;;6.43;3.33;;;18.80;48.10;;;;;;4185161;28;20051;-45
2020/12/05 16:37:02;;;;;;;7.95;3.55;;;18.80;47.70;;;;;;4184565;28;20134;-45
2020/12/05 16:39:23;;;;;;;4.00;3.25;;;18.80;48.50;;;;;;4162631;28;20055;-46
2020/12/05 16:41:43;;;;;;;4.32;2.80;;;18.80;47.80;;;;;;4160416;28;20134;-45
2020/12/05 16:44:07;;;;;;;3.80;2.70;;;18.80;47.60;;;;;;4168629;28;20063;-45
2020/12/05 16:46:34;;;;;;;13.52;4.10;;;18.80;47.60;;;;;;4173079;28;20063;-45
2020/12/05 16:48:58;;;;;;;5.55;2.88;;;18.80;47.60;;;;;;4168987;28;20111;-41
2020/12/05 16:51:24;;;;;;;3.92;3.10;;;18.70;47.70;;;;;;4170631;28;20060;-42
2020/12/05 16:53:50;;;;;;;5.93;2.92;;;18.80;47.80;;;;;;4173850;28;20068;-41
2020/12/05 16:56:13;;;;;;;5.28;3.17;;;18.80;47.60;;;;;;4162902;28;20492;-41
2020/12/05 16:58:45;;;;;;;6.05;2.90;;;18.80;47.60;;;;;;4163107;28;20064;-41
2020/12/05 17:01:06;;;;;;;7.85;2.97;;;18.80;47.60;;;;;;4163062;28;20055;-42
2020/12/05 17:03:26;;;;;;;9.43;3.45;;;18.80;47.80;;;;;;4162642;28;20072;-42
2020/12/05 17:05:59;;;;;;;5.85;3.03;;;18.80;48.00;;;;;;4160014;28;20059;-46
2020/12/05 17:08:19;;;;;;;6.20;3.00;;;18.80;47.80;;;;;;4180972;28;20084;-41
2020/12/05 17:10:43;;;;;;;7.60;2.50;;;18.80;47.80;;;;;;4160016;28;20052;-42
2020/12/05 17:13:04;;;;;;;2.80;2.53;;;18.80;47.70;;;;;;4172804;28;20063;-41
2020/12/05 17:15:24;;;;;;;6.60;2.95;;;18.80;47.70;;;;;;4161766;28;20052;-41
2020/12/05 17:17:46;;;;;;;6.03;2.97;;;18.80;48.10;;;;;;4169812;28;20099;-41
2020/12/05 17:20:07;;;;;;;5.75;2.45;;;18.80;47.80;;;;;;4161828;28;20353;-40
2020/12/05 17:22:27;;;;;;;4.03;2.75;;;18.80;47.80;;;;;;4177367;28;20055;-40
2020/12/05 17:24:49;;;;;;;4.63;2.60;;;18.80;47.80;;;;;;4178321;28;20064;-41
2020/12/05 17:27:09;;;;;;;4.28;3.00;;;18.80;47.80;;;;;;4179211;28;20297;-40
2020/12/05 17:29:30;;;;;;;4.70;2.67;;;18.80;47.80;;;;;;4177709;28;20134;-40
2020/12/05 17:31:55;;;;;;;7.43;3.38;;;18.80;47.80;;;;;;4171010;28;20103;-41
2020/12/05 17:34:17;;;;;;;5.95;2.47;;;18.80;47.80;;;;;;4178939;28;20431;-41
2020/12/05 17:36:38;;;;;;;7.28;2.72;;;18.70;47.90;;;;;;4176569;28;20063;-40
2020/12/05 17:39:04;;;;;;;4.43;2.30;;;18.80;47.90;;;;;;4163863;28;20137;-40
2020/12/05 17:41:28;;;;;;;5.15;2.22;;;18.70;47.80;;;;;;4163297;28;20231;-40
2020/12/05 17:43:49;;;;;;;7.18;2.38;;;18.80;47.90;;;;;;4187984;28;20050;-41
2020/12/05 17:46:09;;;;;;;5.40;2.60;;;18.80;47.90;;;;;;4189138;28;20111;-40
2020/12/05 17:48:51;;;;;;;;;;;18.80;48.30;;;;;;4180760;28;20103;-40
2020/12/05 17:51:12;;;;;;;4.88;2.60;;;18.80;47.70;;;;;;4180271;28;19928;-42
2020/12/05 17:53:33;;;;;;;;;;;18.80;48.20;;;;;;4182993;28;20522;-42
2020/12/05 17:55:53;;;;;;;8.05;2.50;;;18.70;48.90;;;;;;4179643;28;19931;-43
2020/12/05 17:58:15;;;;;;;;;;;18.80;49.10;;;;;;4184327;28;20107;-43
2020/12/05 18:00:35;;;;;;;6.75;2.63;;;18.80;48.60;;;;;;4182156;28;19928;-42
2020/12/05 18:02:55;;;;;;;4.07;2.05;;;18.80;48.60;;;;;;4184536;28;20510;-43
2020/12/05 18:05:19;;;;;;;6.40;2.65;;;18.80;48.60;;;;;;4183937;28;20105;-44
2020/12/05 18:07:40;;;;;;;;;;;18.80;48.60;;;;;;4190108;28;20079;-42
2020/12/05 18:10:03;;;;;;;4.55;2.42;;;18.80;48.40;;;;;;4182083;28;19927;-43
2020/12/05 18:12:30;;;;;;;6.77;2.80;;;18.80;48.60;;;;;;4178429;28;20055;-43
2020/12/05 18:14:51;;;;;;;5.03;2.70;;;18.80;48.60;;;;;;4166918;28;20107;-43
2020/12/05 18:17:13;;;;;;;6.57;3.33;;;18.80;48.60;;;;;;4166598;28;20107;-45
2020/12/05 18:19:36;;;;;;;4.28;2.60;;;18.80;48.60;;;;;;4182833;28;20060;-43
2020/12/05 18:22:00;;;;;;;3.65;1.95;;;18.80;48.50;;;;;;4172880;28;20076;-43
2020/12/05 18:24:22;;;;;;;8.23;3.05;;;18.80;48.60;;;;;;4181891;28;20099;-43
2020/12/05 18:26:48;;;;;;;4.45;2.13;;;18.80;48.60;;;;;;4182233;28;20052;-42
2020/12/05 18:29:09;;;;;;;8.77;2.90;;;18.80;48.60;;;;;;4183058;28;20115;-43
2020/12/05 18:31:29;;;;;;;;;;;18.80;48.60;;;;;;4183210;28;20060;-42
2020/12/05 18:33:50;;;;;;;7.55;2.95;;;18.80;48.20;;;;;;4174237;28;19975;-43
2020/12/05 18:36:13;;;;;;;4.43;2.28;;;18.80;48.70;;;;;;4173631;28;20077;-43
2020/12/05 18:38:36;;;;;;;3.75;2.20;;;18.80;49.10;;;;;;4173089;28;20087;-43
2020/12/05 18:41:06;;;;;;;2.97;2.33;;;18.80;48.90;;;;;;4188381;28;20059;-43
2020/12/05 18:43:28;;;;;;;4.97;2.60;;;18.80;48.80;;;;;;4171831;28;20060;-43
2020/12/05 18:45:52;;;;;;;4.85;2.50;;;18.80;49.00;;;;;;4173652;28;20059;-44
2020/12/05 18:48:12;;;;;;;3.30;2.03;;;18.80;49.00;;;;;;4166085;28;20145;-47
2020/12/05 18:50:36;;;;;;;3.28;2.47;;;18.80;49.20;;;;;;4179169;28;20140;-49
2020/12/05 18:53:12;;;;;;;5.22;2.42;;;18.80;47.80;;;;;;4166265;28;20104;-47
2020/12/05 18:55:35;;;;;;;4.40;2.85;;;18.70;47.80;;;;;;4166133;28;20431;-48
2020/12/05 18:57:58;;;;;;;5.80;3.05;;;18.80;47.70;;;;;;4165512;28;20561;-47
2020/12/05 19:00:29;;;;;;;5.80;2.92;;;18.80;47.70;;;;;;4166373;28;20110;-49
2020/12/05 19:02:52;;;;;;;3.85;2.38;;;18.80;47.70;;;;;;4166083;28;20059;-48
2020/12/05 19:05:21;;;;;;;3.35;2.70;;;18.80;47.70;;;;;;4166214;28;20053;-48
2020/12/05 19:07:48;;;;;;;5.60;2.75;;;18.70;47.80;;;;;;4172158;28;20072;-46
2020/12/05 19:10:23;;;;;;;6.70;3.17;;;18.70;48.60;;;;;;4175531;28;20051;-48
2020/12/05 19:12:49;;;;;;;4.20;2.88;;;18.70;48.00;;;;;;4172978;28;20135;-44
2020/12/05 19:15:10;;;;;;;3.35;2.78;;;18.70;48.10;;;;;;4172697;28;20138;-42
2020/12/05 19:17:30;;;;;;;4.25;2.50;;;18.70;48.10;;;;;;4173918;28;20063;-42
2020/12/05 19:19:54;;;;;;;7.93;2.87;;;18.70;48.10;;;;;;4179070;28;20233;-42
2020/12/05 19:22:23;;;;;;;7.03;2.72;;;18.70;48.60;;;;;;4172734;28;20278;-42
2020/12/05 19:24:51;;;;;;;3.55;2.75;;;18.70;48.30;;;;;;4171115;28;20059;-42
2020/12/05 19:27:11;;;;;;;3.80;2.72;;;18.70;48.50;;;;;;4171652;28;20172;-43
2020/12/05 19:29:37;;;;;;;4.50;2.75;;;18.70;48.40;;;;;;4172414;28;20134;-41
2020/12/05 19:32:16;;;;;;;6.28;3.05;;;18.70;49.00;;;;;;4167351;28;20072;-44
2020/12/05 19:34:39;;;;;;;9.45;3.00;;;18.70;48.60;;;;;;4165890;28;20525;-43
2020/12/05 19:36:59;;;;;;;7.18;3.08;;;18.70;48.40;;;;;;4169827;28;20103;-42
2020/12/05 19:39:19;;;;;;;5.68;3.20;;;18.70;48.40;;;;;;4172319;28;20425;-45
2020/12/05 19:41:46;;;;;;;8.05;3.53;;;18.70;48.50;;;;;;4173514;28;20505;-43
2020/12/05 19:44:07;;;;;;;8.85;3.25;;;18.70;48.40;;;;;;4175712;28;20123;-42
2020/12/05 19:46:31;;;;;;;6.13;3.30;;;18.70;48.50;;;;;;4172566;28;20498;-44
2020/12/05 19:48:52;;;;;;;6.22;3.28;;;18.70;48.40;;;;;;4174425;28;20095;-43
2020/12/05 19:51:14;;;;;;;;;;;18.70;48.50;;;;;;4174619;28;20151;-44
2020/12/05 19:53:42;;;;;;;7.50;2.90;;;18.70;47.80;;;;;;4171407;28;20010;-45
2020/12/05 19:56:07;;;;;;;5.05;2.95;;;18.70;48.50;;;;;;4171178;28;20562;-44
2020/12/05 19:58:36;;;;;;;6.55;3.03;;;18.70;48.50;;;;;;4171764;28;20056;-43
2020/12/05 20:00:59;;;;;;;6.30;3.05;;;18.70;48.50;;;;;;4173877;28;20487;-45
2020/12/05 20:03:24;;;;;;;9.40;3.50;;;18.70;49.20;;;;;;4171680;28;20060;-47
2020/12/05 20:05:58;;;;;;;10.35;4.38;;;18.70;48.70;;;;;;4171298;28;20075;-50
2020/12/05 20:08:21;;;;;;;7.22;4.13;;;18.70;47.90;;;;;;4171357;28;20056;-44
2020/12/05 20:10:51;;;;;;;9.02;5.00;;;18.70;48.30;;;;;;4170097;28;20056;-44
2020/12/05 20:13:14;;;;;;;8.40;4.40;;;18.70;48.50;;;;;;4173413;28;20048;-45
2020/12/05 20:15:40;;;;;;;7.80;4.75;;;18.70;48.60;;;;;;4170635;28;20111;-46
2020/12/05 20:18:00;;;;;;;8.00;3.83;;;18.70;48.50;;;;;;4170209;28;20071;-44
2020/12/05 20:20:21;;;;;;;6.82;3.63;;;18.70;48.80;;;;;;4171581;28;20114;-46
2020/12/05 20:22:45;;;;;;;7.75;3.90;;;18.70;48.60;;;;;;4172288;28;20666;-44
2020/12/05 20:25:05;;;;;;;7.35;3.88;;;18.70;48.60;;;;;;4176786;28;20052;-44
2020/12/05 20:27:26;;;;;;;8.88;4.32;;;18.70;48.70;;;;;;4171734;28;20061;-44
2020/12/05 20:29:46;;;;;;;9.10;4.13;;;18.70;48.90;;;;;;4170391;28;20142;-43
2020/12/05 20:32:09;;;;;;;9.77;4.35;;;18.70;48.90;;;;;;4170469;28;20059;-41
